Centerville, SD (57014)

1:29 PM CDT on September 30, 2014 (GMT -0500)
Northside | Change Station
CLOSE
Current Station
Personal Weather Station
Location: Lennox, SD
Elevation: 1358 ft
Nearby Weather Stations

Elev 1358 ft 43.36 °N, 96.90 °W | Updated 12 minutes ago

Overcast
Overcast
63.1 °F
Feels Like 63.1 °F
N
8.9
Wind Variable Wind from South

Today
High -- | Low -- °F
--% Chance of Precip.
Yesterday
High -- | Low -- °F
Precip. -- in
7:24 AM 7:10 PM
Waxing Crescent, 39% visible
Pressure 29.72 in
Visibility 10.0 miles
Clouds Scattered Clouds 2700 ft
Mostly Cloudy 3300 ft
Dew Point 62 °F
Humidity 96%
Rainfall 0.11 in
Snow Depth 1 in
UV 3 out of 12
Pollen 2.40 out of 12
Air Quality Not available.
Flu Activity Not available.
METAR KYKN 301815Z AUTO 16021G25KT 10SM SCT027 BKN033 23/17 A2972 RMK AO1

More Conditions Fewer Conditions

Pressure 29.72 in
Visibility 10.0 miles
Clouds Scattered Clouds 2700 ft
Mostly Cloudy 3300 ft
Dew Point 62 °F
Humidity 96%
Rainfall 0.11 in
Snow Depth 1 in
UV 3 out of 12
Pollen 2.40 out of 12
Air Quality Not available.
Flu Activity Not available.
METAR KYKN 301815Z AUTO 16021G25KT 10SM SCT027 BKN033 23/17 A2972 RMK AO1

More Conditions Fewer Conditions

10-Day Weather Forecast

Almanac

Astronomy

Sep. 30, 2014 Rise Set
Actual Time 7:24 AM CDT 7:10 PM CDT
Civil Twilight 6:55 AM CDT 7:39 PM CDT
Nautical Twilight 6:22 AM CDT 8:12 PM CDT
Astronomical Twilight 5:49 AM CDT 8:45 PM CDT
Moon 1:40 PM CDT 11:35 PM CDT
Length of Visible Light 12h 43m
Length of Day
11h 46m
Tomorrow will be 2m 55s shorter.
Waxing Crescent, 39% of the Moon is Illuminated
Today
Waxing Crescent
Oct 1
First Quarter
Oct 8
Full
Oct 15
Last Quarter
Oct 23
New

Today's Extremes

State Highs State Lows

Community

WunderPhotos

Upload Photos

1,757,711 photos uploaded!

Nearby

Snow Depth

Station Depth Elevation
Blind Park 1 in 6890 ft

Earthquake Activity

City Distance Mag. Time & Date
No recent earthquake activity has been reported nearby.
Minimum magnitude displayed is 2.5.

Coastal Water Temperatures

Place Temperature
No Stations Reporting

Nearby Weather Stations